sensor_id;sensor_type;location;lat;lon;timestamp;P1;durP1;ratioP1;P2;durP2;ratioP2
72590;SDS011;60625;51.212;5.952;2024-01-30T00:04:54;15.80;;;8.80;;
72590;SDS011;60625;51.212;5.952;2024-01-30T00:09:55;17.30;;;9.40;;
72590;SDS011;60625;51.212;5.952;2024-01-30T00:14:55;16.00;;;9.10;;
72590;SDS011;60625;51.212;5.952;2024-01-30T00:19:56;20.00;;;10.20;;
72590;SDS011;60625;51.212;5.952;2024-01-30T00:24:56;18.00;;;8.60;;
72590;SDS011;60625;51.212;5.952;2024-01-30T00:29:57;19.00;;;9.70;;
72590;SDS011;60625;51.212;5.952;2024-01-30T00:34:58;14.00;;;8.50;;
72590;SDS011;60625;51.212;5.952;2024-01-30T00:39:58;18.70;;;9.30;;
72590;SDS011;60625;51.212;5.952;2024-01-30T00:44:59;16.50;;;9.30;;
72590;SDS011;60625;51.212;5.952;2024-01-30T00:49:59;15.10;;;9.60;;
72590;SDS011;60625;51.212;5.952;2024-01-30T00:55:00;17.10;;;9.30;;
72590;SDS011;60625;51.212;5.952;2024-01-30T01:00:02;15.80;;;9.20;;
72590;SDS011;60625;51.212;5.952;2024-01-30T01:05:03;16.50;;;9.40;;
72590;SDS011;60625;51.212;5.952;2024-01-30T01:10:05;17.70;;;9.20;;
72590;SDS011;60625;51.212;5.952;2024-01-30T01:15:07;14.20;;;8.50;;
72590;SDS011;60625;51.212;5.952;2024-01-30T01:20:11;16.90;;;8.30;;
72590;SDS011;60625;51.212;5.952;2024-01-30T01:25:11;20.60;;;9.80;;
72590;SDS011;60625;51.212;5.952;2024-01-30T01:30:12;16.20;;;8.70;;
72590;SDS011;60625;51.212;5.952;2024-01-30T01:35:19;15.90;;;9.20;;
72590;SDS011;60625;51.212;5.952;2024-01-30T01:40:20;14.70;;;8.10;;
72590;SDS011;60625;51.212;5.952;2024-01-30T01:45:23;13.60;;;7.40;;
72590;SDS011;60625;51.212;5.952;2024-01-30T01:50:24;18.20;;;8.00;;
72590;SDS011;60625;51.212;5.952;2024-01-30T01:55:24;17.80;;;8.20;;
72590;SDS011;60625;51.212;5.952;2024-01-30T02:00:28;17.60;;;8.40;;
72590;SDS011;60625;51.212;5.952;2024-01-30T02:05:29;12.70;;;7.50;;
72590;SDS011;60625;51.212;5.952;2024-01-30T02:10:30;12.00;;;7.60;;
72590;SDS011;60625;51.212;5.952;2024-01-30T02:15:31;14.80;;;7.80;;
72590;SDS011;60625;51.212;5.952;2024-01-30T02:20:34;14.60;;;7.90;;
72590;SDS011;60625;51.212;5.952;2024-01-30T02:25:39;14.50;;;8.00;;
72590;SDS011;60625;51.212;5.952;2024-01-30T02:30:46;14.70;;;7.80;;
72590;SDS011;60625;51.212;5.952;2024-01-30T02:35:46;11.70;;;7.00;;
72590;SDS011;60625;51.212;5.952;2024-01-30T02:40:47;13.70;;;7.70;;
72590;SDS011;60625;51.212;5.952;2024-01-30T02:45:47;13.90;;;7.00;;
72590;SDS011;60625;51.212;5.952;2024-01-30T02:50:48;14.50;;;7.10;;
72590;SDS011;60625;51.212;5.952;2024-01-30T02:55:48;13.90;;;7.10;;
72590;SDS011;60625;51.212;5.952;2024-01-30T03:00:49;14.90;;;7.90;;
72590;SDS011;60625;51.212;5.952;2024-01-30T03:05:49;13.30;;;7.20;;
72590;SDS011;60625;51.212;5.952;2024-01-30T03:10:49;14.10;;;7.00;;
72590;SDS011;60625;51.212;5.952;2024-01-30T03:15:50;15.50;;;7.90;;
72590;SDS011;60625;51.212;5.952;2024-01-30T03:20:50;14.50;;;6.70;;
72590;SDS011;60625;51.212;5.952;2024-01-30T03:25:51;11.60;;;6.40;;
72590;SDS011;60625;51.212;5.952;2024-01-30T03:30:51;12.10;;;7.30;;
72590;SDS011;60625;51.212;5.952;2024-01-30T03:35:52;11.60;;;6.30;;
72590;SDS011;60625;51.212;5.952;2024-01-30T03:40:52;10.90;;;5.90;;
72590;SDS011;60625;51.212;5.952;2024-01-30T03:45:53;12.00;;;5.80;;
72590;SDS011;60625;51.212;5.952;2024-01-30T03:50:53;10.80;;;6.40;;
72590;SDS011;60625;51.212;5.952;2024-01-30T03:55:54;10.90;;;6.20;;
72590;SDS011;60625;51.212;5.952;2024-01-30T04:00:55;12.60;;;5.90;;
72590;SDS011;60625;51.212;5.952;2024-01-30T04:05:55;13.50;;;5.60;;
72590;SDS011;60625;51.212;5.952;2024-01-30T04:10:56;11.40;;;5.80;;
72590;SDS011;60625;51.212;5.952;2024-01-30T04:15:56;13.70;;;5.80;;
72590;SDS011;60625;51.212;5.952;2024-01-30T04:20:57;10.50;;;5.70;;
72590;SDS011;60625;51.212;5.952;2024-01-30T04:25:57;12.60;;;5.60;;
72590;SDS011;60625;51.212;5.952;2024-01-30T04:30:58;12.10;;;5.90;;
72590;SDS011;60625;51.212;5.952;2024-01-30T04:35:59;11.70;;;5.90;;
72590;SDS011;60625;51.212;5.952;2024-01-30T04:40:59;10.20;;;5.60;;
72590;SDS011;60625;51.212;5.952;2024-01-30T04:46:00;11.60;;;6.10;;
72590;SDS011;60625;51.212;5.952;2024-01-30T04:51:00;9.60;;;5.80;;
72590;SDS011;60625;51.212;5.952;2024-01-30T04:56:04;12.00;;;6.00;;
72590;SDS011;60625;51.212;5.952;2024-01-30T05:01:06;10.60;;;5.40;;
72590;SDS011;60625;51.212;5.952;2024-01-30T05:06:07;12.70;;;5.50;;
72590;SDS011;60625;51.212;5.952;2024-01-30T05:11:07;10.50;;;5.50;;
72590;SDS011;60625;51.212;5.952;2024-01-30T05:16:08;11.90;;;6.30;;
72590;SDS011;60625;51.212;5.952;2024-01-30T05:21:08;12.20;;;5.70;;
72590;SDS011;60625;51.212;5.952;2024-01-30T05:26:09;10.40;;;5.80;;
72590;SDS011;60625;51.212;5.952;2024-01-30T05:31:10;9.00;;;5.10;;
72590;SDS011;60625;51.212;5.952;2024-01-30T05:36:13;13.80;;;5.30;;
72590;SDS011;60625;51.212;5.952;2024-01-30T05:41:14;14.50;;;5.80;;
72590;SDS011;60625;51.212;5.952;2024-01-30T05:46:15;9.10;;;5.50;;
72590;SDS011;60625;51.212;5.952;2024-01-30T05:51:15;9.20;;;5.20;;
72590;SDS011;60625;51.212;5.952;2024-01-30T05:56:16;11.10;;;5.30;;
72590;SDS011;60625;51.212;5.952;2024-01-30T06:01:17;12.10;;;5.80;;
72590;SDS011;60625;51.212;5.952;2024-01-30T06:06:17;10.80;;;5.90;;
72590;SDS011;60625;51.212;5.952;2024-01-30T06:11:18;11.80;;;6.60;;
72590;SDS011;60625;51.212;5.952;2024-01-30T06:16:18;10.60;;;6.20;;
72590;SDS011;60625;51.212;5.952;2024-01-30T06:21:21;12.10;;;5.90;;
72590;SDS011;60625;51.212;5.952;2024-01-30T06:26:22;10.30;;;5.70;;
72590;SDS011;60625;51.212;5.952;2024-01-30T06:31:23;11.10;;;6.00;;
72590;SDS011;60625;51.212;5.952;2024-01-30T06:36:23;10.70;;;5.80;;
72590;SDS011;60625;51.212;5.952;2024-01-30T06:41:24;11.00;;;5.70;;
72590;SDS011;60625;51.212;5.952;2024-01-30T06:46:24;9.60;;;5.60;;
72590;SDS011;60625;51.212;5.952;2024-01-30T06:51:25;9.60;;;5.20;;
72590;SDS011;60625;51.212;5.952;2024-01-30T06:56:25;12.30;;;6.30;;
72590;SDS011;60625;51.212;5.952;2024-01-30T07:01:29;12.20;;;5.50;;
72590;SDS011;60625;51.212;5.952;2024-01-30T07:06:30;11.40;;;5.50;;
72590;SDS011;60625;51.212;5.952;2024-01-30T07:11:30;8.30;;;4.50;;
72590;SDS011;60625;51.212;5.952;2024-01-30T07:16:31;10.50;;;4.80;;
72590;SDS011;60625;51.212;5.952;2024-01-30T07:21:31;10.30;;;4.60;;
72590;SDS011;60625;51.212;5.952;2024-01-30T07:26:32;10.10;;;5.00;;
72590;SDS011;60625;51.212;5.952;2024-01-30T07:31:33;12.00;;;5.30;;
72590;SDS011;60625;51.212;5.952;2024-01-30T07:36:33;9.40;;;4.60;;
72590;SDS011;60625;51.212;5.952;2024-01-30T07:41:33;10.40;;;5.90;;
72590;SDS011;60625;51.212;5.952;2024-01-30T07:46:34;11.90;;;5.10;;
72590;SDS011;60625;51.212;5.952;2024-01-30T07:51:34;12.00;;;6.10;;
72590;SDS011;60625;51.212;5.952;2024-01-30T07:56:35;10.50;;;6.00;;
72590;SDS011;60625;51.212;5.952;2024-01-30T08:01:36;14.00;;;5.60;;
72590;SDS011;60625;51.212;5.952;2024-01-30T08:06:36;8.60;;;4.70;;
72590;SDS011;60625;51.212;5.952;2024-01-30T08:11:37;10.90;;;5.90;;
72590;SDS011;60625;51.212;5.952;2024-01-30T08:16:37;13.20;;;5.80;;
72590;SDS011;60625;51.212;5.952;2024-01-30T08:21:38;9.50;;;5.60;;
72590;SDS011;60625;51.212;5.952;2024-01-30T08:26:39;11.30;;;5.50;;
72590;SDS011;60625;51.212;5.952;2024-01-30T08:31:39;8.50;;;5.30;;
72590;SDS011;60625;51.212;5.952;2024-01-30T08:36:40;13.90;;;5.20;;
72590;SDS011;60625;51.212;5.952;2024-01-30T08:41:40;11.90;;;5.90;;
72590;SDS011;60625;51.212;5.952;2024-01-30T08:46:41;9.40;;;5.20;;
72590;SDS011;60625;51.212;5.952;2024-01-30T08:51:42;10.80;;;5.40;;
72590;SDS011;60625;51.212;5.952;2024-01-30T08:56:47;10.30;;;5.50;;
72590;SDS011;60625;51.212;5.952;2024-01-30T09:01:48;8.50;;;5.00;;
72590;SDS011;60625;51.212;5.952;2024-01-30T09:06:48;10.70;;;5.40;;
72590;SDS011;60625;51.212;5.952;2024-01-30T09:11:49;12.40;;;5.60;;
72590;SDS011;60625;51.212;5.952;2024-01-30T09:16:50;10.80;;;6.10;;
72590;SDS011;60625;51.212;5.952;2024-01-30T09:21:50;10.10;;;5.30;;
72590;SDS011;60625;51.212;5.952;2024-01-30T09:26:51;11.60;;;4.50;;
72590;SDS011;60625;51.212;5.952;2024-01-30T09:31:52;12.10;;;5.90;;
72590;SDS011;60625;51.212;5.952;2024-01-30T09:36:52;14.50;;;5.80;;
72590;SDS011;60625;51.212;5.952;2024-01-30T09:47:19;11.30;;;5.80;;
72590;SDS011;60625;51.212;5.952;2024-01-30T09:52:20;12.10;;;6.10;;
72590;SDS011;60625;51.212;5.952;2024-01-30T09:57:21;12.40;;;5.80;;
72590;SDS011;60625;51.212;5.952;2024-01-30T10:02:21;12.00;;;5.90;;
72590;SDS011;60625;51.212;5.952;2024-01-30T10:07:23;14.20;;;5.80;;
72590;SDS011;60625;51.212;5.952;2024-01-30T10:12:26;10.80;;;4.90;;
72590;SDS011;60625;51.212;5.952;2024-01-30T10:17:27;12.40;;;6.10;;
72590;SDS011;60625;51.212;5.952;2024-01-30T10:22:28;13.70;;;6.00;;
72590;SDS011;60625;51.212;5.952;2024-01-30T10:27:28;11.70;;;5.90;;
72590;SDS011;60625;51.212;5.952;2024-01-30T10:32:30;12.80;;;5.30;;
72590;SDS011;60625;51.212;5.952;2024-01-30T10:37:31;12.50;;;5.70;;
72590;SDS011;60625;51.212;5.952;2024-01-30T10:42:36;10.50;;;5.10;;
72590;SDS011;60625;51.212;5.952;2024-01-30T10:47:40;12.30;;;5.30;;
72590;SDS011;60625;51.212;5.952;2024-01-30T10:52:44;11.90;;;5.70;;
72590;SDS011;60625;51.212;5.952;2024-01-30T10:57:46;10.20;;;4.80;;
72590;SDS011;60625;51.212;5.952;2024-01-30T11:02:47;15.60;;;5.60;;
72590;SDS011;60625;51.212;5.952;2024-01-30T11:07:48;16.10;;;5.50;;
72590;SDS011;60625;51.212;5.952;2024-01-30T11:12:49;10.90;;;5.20;;
72590;SDS011;60625;51.212;5.952;2024-01-30T11:17:52;19.10;;;5.60;;
72590;SDS011;60625;51.212;5.952;2024-01-30T11:22:56;13.00;;;5.60;;
72590;SDS011;60625;51.212;5.952;2024-01-30T11:27:56;15.40;;;6.00;;
72590;SDS011;60625;51.212;5.952;2024-01-30T11:33:05;12.60;;;4.60;;
72590;SDS011;60625;51.212;5.952;2024-01-30T11:38:09;12.40;;;6.30;;
72590;SDS011;60625;51.212;5.952;2024-01-30T11:43:10;11.00;;;5.30;;
72590;SDS011;60625;51.212;5.952;2024-01-30T11:48:12;12.40;;;5.50;;
72590;SDS011;60625;51.212;5.952;2024-01-30T11:53:17;14.10;;;5.80;;
72590;SDS011;60625;51.212;5.952;2024-01-30T11:58:17;14.30;;;5.80;;
72590;SDS011;60625;51.212;5.952;2024-01-30T12:03:18;13.40;;;5.80;;
72590;SDS011;60625;51.212;5.952;2024-01-30T12:08:18;13.10;;;5.60;;
72590;SDS011;60625;51.212;5.952;2024-01-30T12:13:19;12.30;;;5.80;;
72590;SDS011;60625;51.212;5.952;2024-01-30T12:18:19;14.10;;;5.70;;
72590;SDS011;60625;51.212;5.952;2024-01-30T12:23:20;12.10;;;5.50;;
72590;SDS011;60625;51.212;5.952;2024-01-30T12:28:25;12.50;;;6.00;;
72590;SDS011;60625;51.212;5.952;2024-01-30T12:33:26;11.10;;;6.20;;
72590;SDS011;60625;51.212;5.952;2024-01-30T12:38:28;14.20;;;5.70;;
72590;SDS011;60625;51.212;5.952;2024-01-30T12:43:29;16.10;;;6.20;;
72590;SDS011;60625;51.212;5.952;2024-01-30T12:48:30;12.50;;;5.70;;
72590;SDS011;60625;51.212;5.952;2024-01-30T12:53:30;11.90;;;5.30;;
72590;SDS011;60625;51.212;5.952;2024-01-30T12:58:31;15.40;;;6.80;;
72590;SDS011;60625;51.212;5.952;2024-01-30T13:03:31;14.50;;;5.90;;
72590;SDS011;60625;51.212;5.952;2024-01-30T13:08:32;10.90;;;4.90;;
72590;SDS011;60625;51.212;5.952;2024-01-30T13:13:33;19.50;;;6.20;;
72590;SDS011;60625;51.212;5.952;2024-01-30T13:18:33;12.00;;;5.90;;
72590;SDS011;60625;51.212;5.952;2024-01-30T13:23:34;13.60;;;6.20;;
72590;SDS011;60625;51.212;5.952;2024-01-30T13:28:35;14.30;;;5.90;;
72590;SDS011;60625;51.212;5.952;2024-01-30T13:33:35;11.30;;;5.80;;
72590;SDS011;60625;51.212;5.952;2024-01-30T13:38:36;11.90;;;5.20;;
72590;SDS011;60625;51.212;5.952;2024-01-30T13:43:38;11.20;;;5.50;;
72590;SDS011;60625;51.212;5.952;2024-01-30T13:48:38;9.80;;;4.90;;
72590;SDS011;60625;51.212;5.952;2024-01-30T13:53:39;11.20;;;4.90;;
72590;SDS011;60625;51.212;5.952;2024-01-30T13:58:40;12.10;;;4.30;;
72590;SDS011;60625;51.212;5.952;2024-01-30T14:03:42;9.60;;;3.20;;
72590;SDS011;60625;51.212;5.952;2024-01-30T14:08:42;9.30;;;2.60;;
72590;SDS011;60625;51.212;5.952;2024-01-30T14:13:43;7.50;;;2.10;;
72590;SDS011;60625;51.212;5.952;2024-01-30T14:18:44;6.90;;;1.80;;
72590;SDS011;60625;51.212;5.952;2024-01-30T14:23:44;5.20;;;1.40;;
72590;SDS011;60625;51.212;5.952;2024-01-30T14:28:45;5.60;;;1.40;;
72590;SDS011;60625;51.212;5.952;2024-01-30T14:33:47;4.90;;;1.40;;
72590;SDS011;60625;51.212;5.952;2024-01-30T14:38:47;5.20;;;1.80;;
72590;SDS011;60625;51.212;5.952;2024-01-30T14:43:48;5.80;;;1.30;;
72590;SDS011;60625;51.212;5.952;2024-01-30T14:48:49;4.10;;;1.00;;
72590;SDS011;60625;51.212;5.952;2024-01-30T14:53:52;3.80;;;1.00;;
72590;SDS011;60625;51.212;5.952;2024-01-30T14:58:52;2.10;;;0.40;;
72590;SDS011;60625;51.212;5.952;2024-01-30T15:03:54;3.80;;;0.60;;
72590;SDS011;60625;51.212;5.952;2024-01-30T15:08:56;5.20;;;0.80;;
72590;SDS011;60625;51.212;5.952;2024-01-30T15:13:57;4.30;;;0.80;;
72590;SDS011;60625;51.212;5.952;2024-01-30T15:18:57;3.60;;;0.70;;
72590;SDS011;60625;51.212;5.952;2024-01-30T15:23:57;4.40;;;0.90;;
72590;SDS011;60625;51.212;5.952;2024-01-30T15:28:58;3.90;;;0.60;;
72590;SDS011;60625;51.212;5.952;2024-01-30T15:33:59;3.70;;;0.60;;
72590;SDS011;60625;51.212;5.952;2024-01-30T15:38:59;4.60;;;0.80;;
72590;SDS011;60625;51.212;5.952;2024-01-30T15:44:00;8.90;;;1.30;;
72590;SDS011;60625;51.212;5.952;2024-01-30T15:49:03;3.40;;;0.70;;
72590;SDS011;60625;51.212;5.952;2024-01-30T15:54:04;4.30;;;0.90;;
72590;SDS011;60625;51.212;5.952;2024-01-30T15:59:05;4.10;;;0.70;;
72590;SDS011;60625;51.212;5.952;2024-01-30T16:04:05;4.70;;;0.70;;
72590;SDS011;60625;51.212;5.952;2024-01-30T16:09:06;4.40;;;1.00;;
72590;SDS011;60625;51.212;5.952;2024-01-30T16:14:06;6.30;;;0.90;;
72590;SDS011;60625;51.212;5.952;2024-01-30T16:19:07;6.30;;;1.20;;
72590;SDS011;60625;51.212;5.952;2024-01-30T16:24:07;3.80;;;0.90;;
72590;SDS011;60625;51.212;5.952;2024-01-30T16:29:08;4.30;;;1.30;;
72590;SDS011;60625;51.212;5.952;2024-01-30T16:34:09;4.70;;;1.20;;
72590;SDS011;60625;51.212;5.952;2024-01-30T16:39:10;4.10;;;1.20;;
72590;SDS011;60625;51.212;5.952;2024-01-30T16:44:10;4.60;;;1.10;;
72590;SDS011;60625;51.212;5.952;2024-01-30T16:49:11;3.60;;;1.10;;
72590;SDS011;60625;51.212;5.952;2024-01-30T16:54:11;5.10;;;1.00;;
72590;SDS011;60625;51.212;5.952;2024-01-30T16:59:12;4.30;;;0.90;;
72590;SDS011;60625;51.212;5.952;2024-01-30T17:04:15;5.00;;;1.10;;
72590;SDS011;60625;51.212;5.952;2024-01-30T17:09:21;5.50;;;1.10;;
72590;SDS011;60625;51.212;5.952;2024-01-30T17:14:21;3.00;;;0.90;;
72590;SDS011;60625;51.212;5.952;2024-01-30T17:19:22;7.50;;;1.20;;
72590;SDS011;60625;51.212;5.952;2024-01-30T17:24:23;5.80;;;1.30;;
72590;SDS011;60625;51.212;5.952;2024-01-30T17:29:23;4.60;;;1.20;;
72590;SDS011;60625;51.212;5.952;2024-01-30T17:34:24;4.00;;;1.50;;
72590;SDS011;60625;51.212;5.952;2024-01-30T17:39:25;5.70;;;1.40;;
72590;SDS011;60625;51.212;5.952;2024-01-30T17:44:26;7.30;;;1.50;;
72590;SDS011;60625;51.212;5.952;2024-01-30T17:49:26;5.70;;;1.20;;
72590;SDS011;60625;51.212;5.952;2024-01-30T17:54:29;5.10;;;1.50;;
72590;SDS011;60625;51.212;5.952;2024-01-30T17:59:30;7.20;;;1.50;;
72590;SDS011;60625;51.212;5.952;2024-01-30T18:04:31;5.20;;;1.30;;
72590;SDS011;60625;51.212;5.952;2024-01-30T18:09:32;4.70;;;1.30;;
72590;SDS011;60625;51.212;5.952;2024-01-30T18:14:33;6.40;;;1.70;;
72590;SDS011;60625;51.212;5.952;2024-01-30T18:19:33;5.50;;;1.70;;
72590;SDS011;60625;51.212;5.952;2024-01-30T18:24:34;5.70;;;1.80;;
72590;SDS011;60625;51.212;5.952;2024-01-30T18:29:35;6.70;;;2.30;;
72590;SDS011;60625;51.212;5.952;2024-01-30T18:34:36;6.60;;;2.30;;
72590;SDS011;60625;51.212;5.952;2024-01-30T18:39:37;6.00;;;2.60;;
72590;SDS011;60625;51.212;5.952;2024-01-30T18:44:39;9.80;;;2.60;;
72590;SDS011;60625;51.212;5.952;2024-01-30T18:49:40;7.20;;;2.20;;
72590;SDS011;60625;51.212;5.952;2024-01-30T18:54:40;5.50;;;2.80;;
72590;SDS011;60625;51.212;5.952;2024-01-30T18:59:40;7.80;;;3.10;;
72590;SDS011;60625;51.212;5.952;2024-01-30T19:04:41;7.10;;;2.80;;
72590;SDS011;60625;51.212;5.952;2024-01-30T19:09:42;9.90;;;3.40;;
72590;SDS011;60625;51.212;5.952;2024-01-30T19:14:42;7.50;;;2.50;;
72590;SDS011;60625;51.212;5.952;2024-01-30T19:19:43;9.60;;;3.70;;
72590;SDS011;60625;51.212;5.952;2024-01-30T19:24:43;6.80;;;3.00;;
72590;SDS011;60625;51.212;5.952;2024-01-30T19:29:44;8.10;;;3.30;;
72590;SDS011;60625;51.212;5.952;2024-01-30T19:34:45;7.40;;;3.00;;
72590;SDS011;60625;51.212;5.952;2024-01-30T19:39:45;7.40;;;2.80;;
72590;SDS011;60625;51.212;5.952;2024-01-30T19:44:47;7.70;;;3.50;;
72590;SDS011;60625;51.212;5.952;2024-01-30T19:49:47;6.90;;;3.10;;
72590;SDS011;60625;51.212;5.952;2024-01-30T19:54:49;8.30;;;3.50;;
72590;SDS011;60625;51.212;5.952;2024-01-30T19:59:49;8.90;;;3.00;;
72590;SDS011;60625;51.212;5.952;2024-01-30T20:04:51;9.10;;;3.70;;
72590;SDS011;60625;51.212;5.952;2024-01-30T20:09:51;8.60;;;3.80;;
72590;SDS011;60625;51.212;5.952;2024-01-30T20:14:52;7.90;;;3.60;;
72590;SDS011;60625;51.212;5.952;2024-01-30T20:19:52;8.00;;;4.50;;
72590;SDS011;60625;51.212;5.952;2024-01-30T20:24:53;8.50;;;4.50;;
72590;SDS011;60625;51.212;5.952;2024-01-30T20:29:54;9.90;;;4.20;;
72590;SDS011;60625;51.212;5.952;2024-01-30T20:34:55;11.00;;;4.70;;
72590;SDS011;60625;51.212;5.952;2024-01-30T20:39:57;10.30;;;4.90;;
72590;SDS011;60625;51.212;5.952;2024-01-30T20:44:58;9.00;;;4.60;;
72590;SDS011;60625;51.212;5.952;2024-01-30T20:49:59;11.60;;;5.00;;
72590;SDS011;60625;51.212;5.952;2024-01-30T20:55:00;11.90;;;5.30;;
72590;SDS011;60625;51.212;5.952;2024-01-30T21:00:01;14.80;;;6.60;;
72590;SDS011;60625;51.212;5.952;2024-01-30T21:05:03;14.50;;;6.00;;
72590;SDS011;60625;51.212;5.952;2024-01-30T21:10:05;12.00;;;5.60;;
72590;SDS011;60625;51.212;5.952;2024-01-30T21:15:07;12.10;;;5.90;;
72590;SDS011;60625;51.212;5.952;2024-01-30T21:20:09;12.90;;;5.60;;
72590;SDS011;60625;51.212;5.952;2024-01-30T21:25:10;12.80;;;5.80;;
72590;SDS011;60625;51.212;5.952;2024-01-30T21:30:11;10.90;;;5.60;;
72590;SDS011;60625;51.212;5.952;2024-01-30T21:35:12;13.50;;;6.50;;
72590;SDS011;60625;51.212;5.952;2024-01-30T21:40:13;12.20;;;6.20;;
72590;SDS011;60625;51.212;5.952;2024-01-30T21:45:15;13.30;;;6.30;;
72590;SDS011;60625;51.212;5.952;2024-01-30T21:50:19;13.90;;;7.10;;
72590;SDS011;60625;51.212;5.952;2024-01-30T21:55:20;16.90;;;7.40;;
72590;SDS011;60625;51.212;5.952;2024-01-30T22:00:20;14.10;;;6.60;;
72590;SDS011;60625;51.212;5.952;2024-01-30T22:05:21;12.80;;;7.10;;
72590;SDS011;60625;51.212;5.952;2024-01-30T22:10:21;13.80;;;7.40;;
72590;SDS011;60625;51.212;5.952;2024-01-30T22:15:22;16.70;;;7.50;;
72590;SDS011;60625;51.212;5.952;2024-01-30T22:20:22;16.30;;;8.40;;
72590;SDS011;60625;51.212;5.952;2024-01-30T22:25:23;15.80;;;8.70;;
72590;SDS011;60625;51.212;5.952;2024-01-30T22:30:24;18.30;;;8.60;;
72590;SDS011;60625;51.212;5.952;2024-01-30T22:35:24;16.50;;;8.90;;
72590;SDS011;60625;51.212;5.952;2024-01-30T22:40:25;17.60;;;9.00;;
72590;SDS011;60625;51.212;5.952;2024-01-30T22:45:25;18.80;;;9.50;;
72590;SDS011;60625;51.212;5.952;2024-01-30T22:50:26;16.30;;;9.00;;
72590;SDS011;60625;51.212;5.952;2024-01-30T22:55:26;17.00;;;9.00;;
72590;SDS011;60625;51.212;5.952;2024-01-30T23:00:27;18.70;;;9.10;;
72590;SDS011;60625;51.212;5.952;2024-01-30T23:05:29;21.20;;;9.90;;
72590;SDS011;60625;51.212;5.952;2024-01-30T23:10:30;20.80;;;9.80;;
72590;SDS011;60625;51.212;5.952;2024-01-30T23:15:30;19.40;;;9.80;;
72590;SDS011;60625;51.212;5.952;2024-01-30T23:20:31;23.10;;;11.30;;
72590;SDS011;60625;51.212;5.952;2024-01-30T23:25:32;19.40;;;11.00;;
72590;SDS011;60625;51.212;5.952;2024-01-30T23:30:32;23.10;;;12.10;;
72590;SDS011;60625;51.212;5.952;2024-01-30T23:35:34;22.90;;;12.10;;
72590;SDS011;60625;51.212;5.952;2024-01-30T23:40:34;20.20;;;11.70;;
72590;SDS011;60625;51.212;5.952;2024-01-30T23:45:35;25.00;;;11.70;;
72590;SDS011;60625;51.212;5.952;2024-01-30T23:50:35;26.50;;;13.10;;
72590;SDS011;60625;51.212;5.952;2024-01-30T23:55:35;26.70;;;13.60;;
